sensor_id;sensor_type;location;lat;lon;timestamp;P1;durP1;ratioP1;P2;durP2;ratioP2
22973;SDS011;11653;50.848;4.584;2023-11-19T00:02:19;12.77;;;5.20;;
22973;SDS011;11653;50.848;4.584;2023-11-19T00:04:45;18.60;;;5.70;;
22973;SDS011;11653;50.848;4.584;2023-11-19T00:07:11;11.33;;;5.10;;
22973;SDS011;11653;50.848;4.584;2023-11-19T00:09:39;12.07;;;5.23;;
22973;SDS011;11653;50.848;4.584;2023-11-19T00:12:05;10.40;;;5.27;;
22973;SDS011;11653;50.848;4.584;2023-11-19T00:14:32;17.07;;;5.50;;
22973;SDS011;11653;50.848;4.584;2023-11-19T00:16:59;12.90;;;4.80;;
22973;SDS011;11653;50.848;4.584;2023-11-19T00:19:25;16.73;;;5.70;;
22973;SDS011;11653;50.848;4.584;2023-11-19T00:21:51;7.30;;;4.63;;
22973;SDS011;11653;50.848;4.584;2023-11-19T00:24:17;16.43;;;4.83;;
22973;SDS011;11653;50.848;4.584;2023-11-19T00:26:43;12.63;;;4.53;;
22973;SDS011;11653;50.848;4.584;2023-11-19T00:29:09;10.17;;;4.77;;
22973;SDS011;11653;50.848;4.584;2023-11-19T00:31:35;15.90;;;5.23;;
22973;SDS011;11653;50.848;4.584;2023-11-19T00:34:01;12.03;;;4.37;;
22973;SDS011;11653;50.848;4.584;2023-11-19T00:36:27;11.13;;;4.60;;
22973;SDS011;11653;50.848;4.584;2023-11-19T00:38:53;15.07;;;5.33;;
22973;SDS011;11653;50.848;4.584;2023-11-19T00:41:19;13.10;;;4.23;;
22973;SDS011;11653;50.848;4.584;2023-11-19T00:43:45;14.23;;;4.53;;
22973;SDS011;11653;50.848;4.584;2023-11-19T00:46:11;10.67;;;3.87;;
22973;SDS011;11653;50.848;4.584;2023-11-19T00:48:38;15.77;;;4.77;;
22973;SDS011;11653;50.848;4.584;2023-11-19T00:51:04;17.40;;;3.87;;
22973;SDS011;11653;50.848;4.584;2023-11-19T00:53:30;17.00;;;4.23;;
22973;SDS011;11653;50.848;4.584;2023-11-19T00:55:57;16.20;;;4.80;;
22973;SDS011;11653;50.848;4.584;2023-11-19T00:58:23;15.40;;;3.47;;
22973;SDS011;11653;50.848;4.584;2023-11-19T01:00:48;10.80;;;3.87;;
22973;SDS011;11653;50.848;4.584;2023-11-19T01:03:14;8.17;;;3.30;;
22973;SDS011;11653;50.848;4.584;2023-11-19T01:05:41;14.53;;;3.70;;
22973;SDS011;11653;50.848;4.584;2023-11-19T01:08:07;20.03;;;3.53;;
22973;SDS011;11653;50.848;4.584;2023-11-19T01:10:33;19.67;;;4.37;;
22973;SDS011;11653;50.848;4.584;2023-11-19T01:12:59;11.90;;;3.07;;
22973;SDS011;11653;50.848;4.584;2023-11-19T01:15:25;15.47;;;3.97;;
22973;SDS011;11653;50.848;4.584;2023-11-19T01:17:51;15.57;;;3.37;;
22973;SDS011;11653;50.848;4.584;2023-11-19T01:20:17;15.37;;;3.90;;
22973;SDS011;11653;50.848;4.584;2023-11-19T01:22:43;16.13;;;4.00;;
22973;SDS011;11653;50.848;4.584;2023-11-19T01:25:08;18.53;;;4.53;;
22973;SDS011;11653;50.848;4.584;2023-11-19T01:27:34;17.53;;;3.23;;
22973;SDS011;11653;50.848;4.584;2023-11-19T01:30:00;22.90;;;4.80;;
22973;SDS011;11653;50.848;4.584;2023-11-19T01:32:28;13.63;;;3.00;;
22973;SDS011;11653;50.848;4.584;2023-11-19T01:34:54;11.93;;;3.70;;
22973;SDS011;11653;50.848;4.584;2023-11-19T01:37:20;14.77;;;3.30;;
22973;SDS011;11653;50.848;4.584;2023-11-19T01:39:45;14.57;;;3.40;;
22973;SDS011;11653;50.848;4.584;2023-11-19T01:42:15;16.90;;;3.80;;
22973;SDS011;11653;50.848;4.584;2023-11-19T01:44:41;11.00;;;3.20;;
22973;SDS011;11653;50.848;4.584;2023-11-19T01:47:06;18.97;;;3.40;;
22973;SDS011;11653;50.848;4.584;2023-11-19T01:49:33;17.07;;;3.50;;
22973;SDS011;11653;50.848;4.584;2023-11-19T01:51:59;16.50;;;3.60;;
22973;SDS011;11653;50.848;4.584;2023-11-19T01:54:26;19.67;;;4.60;;
22973;SDS011;11653;50.848;4.584;2023-11-19T02:00:17;14.03;;;2.87;;
22973;SDS011;11653;50.848;4.584;2023-11-19T02:06:15;15.90;;;3.37;;
22973;SDS011;11653;50.848;4.584;2023-11-19T02:08:42;13.43;;;3.23;;
22973;SDS011;11653;50.848;4.584;2023-11-19T02:11:08;14.17;;;3.00;;
22973;SDS011;11653;50.848;4.584;2023-11-19T02:13:34;19.10;;;3.33;;
22973;SDS011;11653;50.848;4.584;2023-11-19T02:19:24;18.40;;;3.20;;
22973;SDS011;11653;50.848;4.584;2023-11-19T02:21:49;17.63;;;3.73;;
22973;SDS011;11653;50.848;4.584;2023-11-19T02:24:15;19.43;;;3.93;;
22973;SDS011;11653;50.848;4.584;2023-11-19T02:26:58;13.67;;;3.27;;
22973;SDS011;11653;50.848;4.584;2023-11-19T02:30:15;25.77;;;4.20;;
22973;SDS011;11653;50.848;4.584;2023-11-19T02:32:41;24.07;;;3.60;;
22973;SDS011;11653;50.848;4.584;2023-11-19T02:35:07;22.33;;;3.83;;
22973;SDS011;11653;50.848;4.584;2023-11-19T02:37:37;22.80;;;3.87;;
22973;SDS011;11653;50.848;4.584;2023-11-19T02:40:04;21.70;;;4.27;;
22973;SDS011;11653;50.848;4.584;2023-11-19T02:42:33;25.37;;;4.43;;
22973;SDS011;11653;50.848;4.584;2023-11-19T02:44:59;18.87;;;5.20;;
22973;SDS011;11653;50.848;4.584;2023-11-19T02:50:51;18.03;;;4.27;;
22973;SDS011;11653;50.848;4.584;2023-11-19T02:53:17;15.43;;;4.03;;
22973;SDS011;11653;50.848;4.584;2023-11-19T02:55:46;19.80;;;3.47;;
22973;SDS011;11653;50.848;4.584;2023-11-19T02:58:15;17.33;;;4.17;;
22973;SDS011;11653;50.848;4.584;2023-11-19T03:00:49;24.97;;;5.03;;
22973;SDS011;11653;50.848;4.584;2023-11-19T03:03:22;14.80;;;3.77;;
22973;SDS011;11653;50.848;4.584;2023-11-19T03:05:56;19.67;;;3.67;;
22973;SDS011;11653;50.848;4.584;2023-11-19T03:08:22;17.77;;;3.97;;
22973;SDS011;11653;50.848;4.584;2023-11-19T03:10:48;22.07;;;4.37;;
22973;SDS011;11653;50.848;4.584;2023-11-19T03:13:14;16.50;;;3.30;;
22973;SDS011;11653;50.848;4.584;2023-11-19T03:15:40;19.23;;;3.60;;
22973;SDS011;11653;50.848;4.584;2023-11-19T03:18:06;20.53;;;4.83;;
22973;SDS011;11653;50.848;4.584;2023-11-19T03:20:32;20.50;;;3.70;;
22973;SDS011;11653;50.848;4.584;2023-11-19T03:22:58;23.53;;;3.90;;
22973;SDS011;11653;50.848;4.584;2023-11-19T03:25:25;22.63;;;3.70;;
22973;SDS011;11653;50.848;4.584;2023-11-19T03:28:01;17.07;;;3.27;;
22973;SDS011;11653;50.848;4.584;2023-11-19T03:30:28;16.80;;;3.67;;
22973;SDS011;11653;50.848;4.584;2023-11-19T03:32:57;18.77;;;2.70;;
22973;SDS011;11653;50.848;4.584;2023-11-19T03:35:23;16.73;;;3.70;;
22973;SDS011;11653;50.848;4.584;2023-11-19T03:37:49;27.10;;;4.07;;
22973;SDS011;11653;50.848;4.584;2023-11-19T03:40:16;18.23;;;4.20;;
22973;SDS011;11653;50.848;4.584;2023-11-19T03:42:43;15.00;;;3.43;;
22973;SDS011;11653;50.848;4.584;2023-11-19T03:45:12;23.77;;;4.13;;
22973;SDS011;11653;50.848;4.584;2023-11-19T03:47:38;21.77;;;3.20;;
22973;SDS011;11653;50.848;4.584;2023-11-19T03:50:05;24.93;;;4.03;;
22973;SDS011;11653;50.848;4.584;2023-11-19T03:52:32;17.67;;;3.37;;
22973;SDS011;11653;50.848;4.584;2023-11-19T03:54:58;12.80;;;3.17;;
22973;SDS011;11653;50.848;4.584;2023-11-19T03:57:24;23.83;;;3.60;;
22973;SDS011;11653;50.848;4.584;2023-11-19T03:59:54;26.93;;;4.40;;
22973;SDS011;11653;50.848;4.584;2023-11-19T04:02:20;25.30;;;4.27;;
22973;SDS011;11653;50.848;4.584;2023-11-19T04:04:48;22.37;;;3.50;;
22973;SDS011;11653;50.848;4.584;2023-11-19T04:07:14;21.07;;;3.53;;
22973;SDS011;11653;50.848;4.584;2023-11-19T04:09:40;22.80;;;3.57;;
22973;SDS011;11653;50.848;4.584;2023-11-19T04:12:06;24.50;;;3.30;;
22973;SDS011;11653;50.848;4.584;2023-11-19T04:14:34;22.33;;;3.87;;
22973;SDS011;11653;50.848;4.584;2023-11-19T04:17:01;19.13;;;4.03;;
22973;SDS011;11653;50.848;4.584;2023-11-19T04:19:30;21.17;;;4.03;;
22973;SDS011;11653;50.848;4.584;2023-11-19T04:21:57;22.53;;;4.27;;
22973;SDS011;11653;50.848;4.584;2023-11-19T04:24:23;22.87;;;4.40;;
22973;SDS011;11653;50.848;4.584;2023-11-19T04:26:49;21.97;;;3.83;;
22973;SDS011;11653;50.848;4.584;2023-11-19T04:29:20;24.93;;;3.53;;
22973;SDS011;11653;50.848;4.584;2023-11-19T04:31:48;17.33;;;3.60;;
22973;SDS011;11653;50.848;4.584;2023-11-19T04:34:14;21.03;;;3.80;;
22973;SDS011;11653;50.848;4.584;2023-11-19T04:36:40;20.77;;;3.23;;
22973;SDS011;11653;50.848;4.584;2023-11-19T04:39:05;25.13;;;4.77;;
22973;SDS011;11653;50.848;4.584;2023-11-19T04:41:46;30.73;;;3.87;;
22973;SDS011;11653;50.848;4.584;2023-11-19T04:44:13;20.80;;;4.73;;
22973;SDS011;11653;50.848;4.584;2023-11-19T04:46:40;15.90;;;3.17;;
22973;SDS011;11653;50.848;4.584;2023-11-19T04:49:08;26.00;;;4.23;;
22973;SDS011;11653;50.848;4.584;2023-11-19T04:51:41;25.60;;;3.50;;
22973;SDS011;11653;50.848;4.584;2023-11-19T04:54:09;20.07;;;3.57;;
22973;SDS011;11653;50.848;4.584;2023-11-19T04:56:38;10.60;;;3.13;;
22973;SDS011;11653;50.848;4.584;2023-11-19T04:59:04;18.37;;;3.90;;
22973;SDS011;11653;50.848;4.584;2023-11-19T05:01:31;27.13;;;5.13;;
22973;SDS011;11653;50.848;4.584;2023-11-19T05:04:00;16.87;;;3.27;;
22973;SDS011;11653;50.848;4.584;2023-11-19T05:06:30;30.80;;;5.07;;
22973;SDS011;11653;50.848;4.584;2023-11-19T05:08:56;21.73;;;4.73;;
22973;SDS011;11653;50.848;4.584;2023-11-19T05:11:34;32.53;;;6.40;;
22973;SDS011;11653;50.848;4.584;2023-11-19T05:14:01;22.47;;;4.90;;
22973;SDS011;11653;50.848;4.584;2023-11-19T05:16:29;25.07;;;6.20;;
22973;SDS011;11653;50.848;4.584;2023-11-19T05:18:54;24.30;;;4.23;;
22973;SDS011;11653;50.848;4.584;2023-11-19T05:21:20;24.43;;;5.20;;
22973;SDS011;11653;50.848;4.584;2023-11-19T05:23:46;21.73;;;4.70;;
22973;SDS011;11653;50.848;4.584;2023-11-19T05:26:21;24.93;;;4.50;;
22973;SDS011;11653;50.848;4.584;2023-11-19T05:28:48;25.83;;;4.30;;
22973;SDS011;11653;50.848;4.584;2023-11-19T05:31:15;28.80;;;5.30;;
22973;SDS011;11653;50.848;4.584;2023-11-19T05:33:41;25.10;;;4.03;;
22973;SDS011;11653;50.848;4.584;2023-11-19T05:36:07;28.90;;;5.23;;
22973;SDS011;11653;50.848;4.584;2023-11-19T05:38:33;19.57;;;3.80;;
22973;SDS011;11653;50.848;4.584;2023-11-19T05:41:00;25.20;;;4.50;;
22973;SDS011;11653;50.848;4.584;2023-11-19T05:43:25;20.30;;;3.83;;
22973;SDS011;11653;50.848;4.584;2023-11-19T05:45:51;27.67;;;4.33;;
22973;SDS011;11653;50.848;4.584;2023-11-19T05:48:17;33.77;;;5.03;;
22973;SDS011;11653;50.848;4.584;2023-11-19T05:50:42;29.60;;;5.77;;
22973;SDS011;11653;50.848;4.584;2023-11-19T05:53:09;29.10;;;4.70;;
22973;SDS011;11653;50.848;4.584;2023-11-19T05:55:38;29.17;;;4.37;;
22973;SDS011;11653;50.848;4.584;2023-11-19T05:58:24;31.13;;;5.20;;
22973;SDS011;11653;50.848;4.584;2023-11-19T06:00:51;31.90;;;3.80;;
22973;SDS011;11653;50.848;4.584;2023-11-19T06:03:18;30.10;;;4.53;;
22973;SDS011;11653;50.848;4.584;2023-11-19T06:05:47;27.57;;;4.50;;
22973;SDS011;11653;50.848;4.584;2023-11-19T06:08:13;30.47;;;5.37;;
22973;SDS011;11653;50.848;4.584;2023-11-19T06:10:42;36.13;;;5.30;;
22973;SDS011;11653;50.848;4.584;2023-11-19T06:13:11;31.00;;;5.87;;
22973;SDS011;11653;50.848;4.584;2023-11-19T06:15:40;35.00;;;5.43;;
22973;SDS011;11653;50.848;4.584;2023-11-19T06:18:06;33.83;;;5.07;;
22973;SDS011;11653;50.848;4.584;2023-11-19T06:20:33;30.77;;;4.77;;
22973;SDS011;11653;50.848;4.584;2023-11-19T06:22:59;30.70;;;4.57;;
22973;SDS011;11653;50.848;4.584;2023-11-19T06:25:25;27.80;;;5.33;;
22973;SDS011;11653;50.848;4.584;2023-11-19T06:27:51;28.93;;;4.87;;
22973;SDS011;11653;50.848;4.584;2023-11-19T06:30:17;30.53;;;4.60;;
22973;SDS011;11653;50.848;4.584;2023-11-19T06:32:43;25.07;;;4.37;;
22973;SDS011;11653;50.848;4.584;2023-11-19T06:35:09;27.63;;;5.40;;
22973;SDS011;11653;50.848;4.584;2023-11-19T06:37:35;26.77;;;4.53;;
22973;SDS011;11653;50.848;4.584;2023-11-19T06:40:03;31.93;;;5.10;;
22973;SDS011;11653;50.848;4.584;2023-11-19T06:42:30;32.60;;;5.23;;
22973;SDS011;11653;50.848;4.584;2023-11-19T06:44:55;29.37;;;4.20;;
22973;SDS011;11653;50.848;4.584;2023-11-19T06:47:22;30.40;;;5.17;;
22973;SDS011;11653;50.848;4.584;2023-11-19T06:49:52;24.30;;;4.10;;
22973;SDS011;11653;50.848;4.584;2023-11-19T06:52:18;24.90;;;3.83;;
22973;SDS011;11653;50.848;4.584;2023-11-19T06:54:44;23.23;;;4.47;;
22973;SDS011;11653;50.848;4.584;2023-11-19T06:57:13;33.13;;;5.77;;
22973;SDS011;11653;50.848;4.584;2023-11-19T06:59:39;25.40;;;5.23;;
22973;SDS011;11653;50.848;4.584;2023-11-19T07:02:05;29.33;;;5.47;;
22973;SDS011;11653;50.848;4.584;2023-11-19T07:04:31;42.30;;;4.90;;
22973;SDS011;11653;50.848;4.584;2023-11-19T07:06:58;38.17;;;5.53;;
22973;SDS011;11653;50.848;4.584;2023-11-19T07:09:24;27.50;;;3.90;;
22973;SDS011;11653;50.848;4.584;2023-11-19T07:11:51;28.53;;;4.43;;
22973;SDS011;11653;50.848;4.584;2023-11-19T07:14:17;30.30;;;5.77;;
22973;SDS011;11653;50.848;4.584;2023-11-19T07:16:43;30.63;;;4.50;;
22973;SDS011;11653;50.848;4.584;2023-11-19T07:19:10;30.17;;;4.80;;
22973;SDS011;11653;50.848;4.584;2023-11-19T07:21:36;39.10;;;6.00;;
22973;SDS011;11653;50.848;4.584;2023-11-19T07:24:08;26.63;;;4.23;;
22973;SDS011;11653;50.848;4.584;2023-11-19T07:26:35;34.13;;;4.57;;
22973;SDS011;11653;50.848;4.584;2023-11-19T07:29:02;31.17;;;5.17;;
22973;SDS011;11653;50.848;4.584;2023-11-19T07:31:28;23.30;;;4.93;;
22973;SDS011;11653;50.848;4.584;2023-11-19T07:33:53;29.07;;;5.00;;
22973;SDS011;11653;50.848;4.584;2023-11-19T07:36:19;37.63;;;5.23;;
22973;SDS011;11653;50.848;4.584;2023-11-19T07:38:45;33.83;;;5.17;;
22973;SDS011;11653;50.848;4.584;2023-11-19T07:41:12;38.97;;;5.57;;
22973;SDS011;11653;50.848;4.584;2023-11-19T07:43:43;29.80;;;6.33;;
22973;SDS011;11653;50.848;4.584;2023-11-19T07:46:13;31.43;;;5.20;;
22973;SDS011;11653;50.848;4.584;2023-11-19T07:48:39;33.43;;;6.20;;
22973;SDS011;11653;50.848;4.584;2023-11-19T07:51:05;35.77;;;5.40;;
22973;SDS011;11653;50.848;4.584;2023-11-19T07:53:31;26.63;;;4.53;;
22973;SDS011;11653;50.848;4.584;2023-11-19T07:56:02;31.37;;;6.03;;
22973;SDS011;11653;50.848;4.584;2023-11-19T07:58:28;31.47;;;4.93;;
22973;SDS011;11653;50.848;4.584;2023-11-19T08:00:54;33.27;;;5.33;;
22973;SDS011;11653;50.848;4.584;2023-11-19T08:03:19;26.77;;;4.90;;
22973;SDS011;11653;50.848;4.584;2023-11-19T08:05:47;28.97;;;5.73;;
22973;SDS011;11653;50.848;4.584;2023-11-19T08:08:13;30.67;;;4.57;;
22973;SDS011;11653;50.848;4.584;2023-11-19T08:10:38;31.83;;;5.33;;
22973;SDS011;11653;50.848;4.584;2023-11-19T08:13:05;27.27;;;4.23;;
22973;SDS011;11653;50.848;4.584;2023-11-19T08:15:31;38.90;;;5.53;;
22973;SDS011;11653;50.848;4.584;2023-11-19T08:17:57;35.80;;;5.77;;
22973;SDS011;11653;50.848;4.584;2023-11-19T08:20:22;25.67;;;4.73;;
22973;SDS011;11653;50.848;4.584;2023-11-19T08:22:48;25.43;;;4.90;;
22973;SDS011;11653;50.848;4.584;2023-11-19T08:25:14;27.23;;;4.57;;
22973;SDS011;11653;50.848;4.584;2023-11-19T08:27:40;33.63;;;4.33;;
22973;SDS011;11653;50.848;4.584;2023-11-19T08:30:05;29.07;;;4.63;;
22973;SDS011;11653;50.848;4.584;2023-11-19T08:32:32;21.53;;;4.13;;
22973;SDS011;11653;50.848;4.584;2023-11-19T08:34:58;27.70;;;4.93;;
22973;SDS011;11653;50.848;4.584;2023-11-19T08:37:27;24.50;;;4.23;;
22973;SDS011;11653;50.848;4.584;2023-11-19T08:39:53;23.43;;;4.27;;
22973;SDS011;11653;50.848;4.584;2023-11-19T08:42:18;26.80;;;4.67;;
22973;SDS011;11653;50.848;4.584;2023-11-19T08:44:48;20.63;;;4.33;;
22973;SDS011;11653;50.848;4.584;2023-11-19T08:47:15;24.33;;;4.17;;
22973;SDS011;11653;50.848;4.584;2023-11-19T08:49:43;22.97;;;5.43;;
22973;SDS011;11653;50.848;4.584;2023-11-19T08:52:09;28.70;;;4.73;;
22973;SDS011;11653;50.848;4.584;2023-11-19T08:54:35;23.80;;;3.43;;
22973;SDS011;11653;50.848;4.584;2023-11-19T08:57:01;24.33;;;4.23;;
22973;SDS011;11653;50.848;4.584;2023-11-19T08:59:28;26.43;;;4.60;;
22973;SDS011;11653;50.848;4.584;2023-11-19T09:01:56;22.70;;;4.43;;
22973;SDS011;11653;50.848;4.584;2023-11-19T09:04:22;27.80;;;4.83;;
22973;SDS011;11653;50.848;4.584;2023-11-19T09:07:01;38.97;;;5.87;;
22973;SDS011;11653;50.848;4.584;2023-11-19T09:12:52;30.33;;;4.60;;
22973;SDS011;11653;50.848;4.584;2023-11-19T09:15:18;30.17;;;4.47;;
22973;SDS011;11653;50.848;4.584;2023-11-19T09:17:43;30.07;;;5.30;;
22973;SDS011;11653;50.848;4.584;2023-11-19T09:20:10;27.77;;;4.00;;
22973;SDS011;11653;50.848;4.584;2023-11-19T09:22:39;21.60;;;4.20;;
22973;SDS011;11653;50.848;4.584;2023-11-19T09:25:06;21.43;;;4.00;;
22973;SDS011;11653;50.848;4.584;2023-11-19T09:27:32;18.67;;;2.73;;
22973;SDS011;11653;50.848;4.584;2023-11-19T09:29:57;21.40;;;3.93;;
22973;SDS011;11653;50.848;4.584;2023-11-19T09:32:23;21.23;;;3.67;;
22973;SDS011;11653;50.848;4.584;2023-11-19T09:34:49;23.03;;;4.17;;
22973;SDS011;11653;50.848;4.584;2023-11-19T09:37:15;17.03;;;3.77;;
22973;SDS011;11653;50.848;4.584;2023-11-19T09:39:41;21.07;;;3.30;;
22973;SDS011;11653;50.848;4.584;2023-11-19T09:42:10;21.07;;;4.20;;
22973;SDS011;11653;50.848;4.584;2023-11-19T09:44:37;17.60;;;3.50;;
22973;SDS011;11653;50.848;4.584;2023-11-19T09:47:04;13.43;;;3.07;;
22973;SDS011;11653;50.848;4.584;2023-11-19T09:49:32;21.33;;;3.43;;
22973;SDS011;11653;50.848;4.584;2023-11-19T09:52:00;18.07;;;4.10;;
22973;SDS011;11653;50.848;4.584;2023-11-19T09:54:26;17.60;;;3.73;;
22973;SDS011;11653;50.848;4.584;2023-11-19T09:56:52;21.27;;;3.80;;
22973;SDS011;11653;50.848;4.584;2023-11-19T09:59:18;13.87;;;2.93;;
22973;SDS011;11653;50.848;4.584;2023-11-19T10:01:44;22.00;;;3.53;;
22973;SDS011;11653;50.848;4.584;2023-11-19T10:04:11;19.60;;;3.50;;
22973;SDS011;11653;50.848;4.584;2023-11-19T10:06:41;21.90;;;3.97;;
22973;SDS011;11653;50.848;4.584;2023-11-19T10:09:07;16.87;;;3.60;;
22973;SDS011;11653;50.848;4.584;2023-11-19T10:11:33;18.63;;;3.40;;
22973;SDS011;11653;50.848;4.584;2023-11-19T10:13:59;26.03;;;4.57;;
22973;SDS011;11653;50.848;4.584;2023-11-19T10:16:29;19.67;;;4.30;;
22973;SDS011;11653;50.848;4.584;2023-11-19T10:18:56;19.33;;;4.20;;
22973;SDS011;11653;50.848;4.584;2023-11-19T10:21:22;21.93;;;4.00;;
22973;SDS011;11653;50.848;4.584;2023-11-19T10:23:49;22.00;;;3.93;;
22973;SDS011;11653;50.848;4.584;2023-11-19T10:26:16;24.80;;;4.37;;
22973;SDS011;11653;50.848;4.584;2023-11-19T10:28:42;21.60;;;3.63;;
22973;SDS011;11653;50.848;4.584;2023-11-19T10:31:10;20.57;;;3.60;;
22973;SDS011;11653;50.848;4.584;2023-11-19T10:33:40;19.47;;;2.77;;
22973;SDS011;11653;50.848;4.584;2023-11-19T10:36:06;20.57;;;3.80;;
22973;SDS011;11653;50.848;4.584;2023-11-19T10:38:32;19.77;;;4.03;;
22973;SDS011;11653;50.848;4.584;2023-11-19T10:40:58;19.43;;;3.30;;
22973;SDS011;11653;50.848;4.584;2023-11-19T10:43:24;19.50;;;3.17;;
22973;SDS011;11653;50.848;4.584;2023-11-19T10:45:50;16.13;;;2.77;;
22973;SDS011;11653;50.848;4.584;2023-11-19T10:48:17;20.70;;;3.50;;
22973;SDS011;11653;50.848;4.584;2023-11-19T10:50:43;17.33;;;3.50;;
22973;SDS011;11653;50.848;4.584;2023-11-19T10:53:11;18.80;;;2.97;;
22973;SDS011;11653;50.848;4.584;2023-11-19T10:55:43;17.47;;;3.73;;
22973;SDS011;11653;50.848;4.584;2023-11-19T10:58:12;17.47;;;2.93;;
22973;SDS011;11653;50.848;4.584;2023-11-19T11:00:45;15.80;;;2.97;;
22973;SDS011;11653;50.848;4.584;2023-11-19T11:03:18;16.53;;;3.10;;
22973;SDS011;11653;50.848;4.584;2023-11-19T11:05:49;15.90;;;2.90;;
22973;SDS011;11653;50.848;4.584;2023-11-19T11:08:16;17.17;;;3.17;;
22973;SDS011;11653;50.848;4.584;2023-11-19T11:10:44;17.13;;;3.73;;
22973;SDS011;11653;50.848;4.584;2023-11-19T11:13:11;18.67;;;3.43;;
22973;SDS011;11653;50.848;4.584;2023-11-19T11:15:38;18.40;;;3.57;;
22973;SDS011;11653;50.848;4.584;2023-11-19T11:18:07;18.07;;;3.30;;
22973;SDS011;11653;50.848;4.584;2023-11-19T11:20:34;17.20;;;3.70;;
22973;SDS011;11653;50.848;4.584;2023-11-19T11:23:11;16.40;;;3.40;;
22973;SDS011;11653;50.848;4.584;2023-11-19T11:41:12;24.97;;;5.03;;
22973;SDS011;11653;50.848;4.584;2023-11-19T11:50:12;18.20;;;3.17;;
22973;SDS011;11653;50.848;4.584;2023-11-19T11:58:01;20.93;;;4.03;;
22973;SDS011;11653;50.848;4.584;2023-11-19T12:00:37;18.90;;;4.10;;
22973;SDS011;11653;50.848;4.584;2023-11-19T12:03:06;20.30;;;4.53;;
22973;SDS011;11653;50.848;4.584;2023-11-19T12:05:44;19.87;;;3.83;;
22973;SDS011;11653;50.848;4.584;2023-11-19T12:08:11;20.17;;;4.40;;
22973;SDS011;11653;50.848;4.584;2023-11-19T12:10:44;16.80;;;3.30;;
22973;SDS011;11653;50.848;4.584;2023-11-19T12:13:10;20.40;;;4.43;;
22973;SDS011;11653;50.848;4.584;2023-11-19T12:16:06;15.20;;;3.23;;
22973;SDS011;11653;50.848;4.584;2023-11-19T12:18:33;16.30;;;3.43;;
22973;SDS011;11653;50.848;4.584;2023-11-19T12:20:59;19.47;;;3.90;;
22973;SDS011;11653;50.848;4.584;2023-11-19T12:23:28;16.43;;;3.27;;
22973;SDS011;11653;50.848;4.584;2023-11-19T12:25:55;12.23;;;3.03;;
22973;SDS011;11653;50.848;4.584;2023-11-19T12:28:20;13.77;;;2.50;;
22973;SDS011;11653;50.848;4.584;2023-11-19T12:30:47;13.50;;;2.53;;
22973;SDS011;11653;50.848;4.584;2023-11-19T12:33:13;11.80;;;2.50;;
22973;SDS011;11653;50.848;4.584;2023-11-19T12:35:40;13.43;;;3.10;;
22973;SDS011;11653;50.848;4.584;2023-11-19T12:38:07;13.43;;;2.70;;
22973;SDS011;11653;50.848;4.584;2023-11-19T12:40:32;21.17;;;3.67;;
22973;SDS011;11653;50.848;4.584;2023-11-19T12:42:58;19.07;;;2.90;;
22973;SDS011;11653;50.848;4.584;2023-11-19T12:45:25;19.87;;;3.17;;
22973;SDS011;11653;50.848;4.584;2023-11-19T12:48:06;21.57;;;3.67;;
22973;SDS011;11653;50.848;4.584;2023-11-19T12:53:25;20.73;;;4.23;;
22973;SDS011;11653;50.848;4.584;2023-11-19T12:55:51;17.83;;;3.50;;
22973;SDS011;11653;50.848;4.584;2023-11-19T12:58:35;25.57;;;3.43;;
22973;SDS011;11653;50.848;4.584;2023-11-19T13:01:05;21.53;;;4.37;;
22973;SDS011;11653;50.848;4.584;2023-11-19T13:03:32;22.37;;;4.10;;
22973;SDS011;11653;50.848;4.584;2023-11-19T13:06:06;21.37;;;4.10;;
22973;SDS011;11653;50.848;4.584;2023-11-19T13:08:46;20.50;;;3.40;;
22973;SDS011;11653;50.848;4.584;2023-11-19T13:11:15;30.70;;;4.17;;
22973;SDS011;11653;50.848;4.584;2023-11-19T13:13:55;10.63;;;2.70;;
22973;SDS011;11653;50.848;4.584;2023-11-19T13:16:25;13.83;;;4.30;;
22973;SDS011;11653;50.848;4.584;2023-11-19T13:18:51;19.13;;;3.50;;
22973;SDS011;11653;50.848;4.584;2023-11-19T13:21:17;20.20;;;3.47;;
22973;SDS011;11653;50.848;4.584;2023-11-19T13:23:43;24.90;;;4.43;;
22973;SDS011;11653;50.848;4.584;2023-11-19T13:26:09;29.33;;;3.83;;
22973;SDS011;11653;50.848;4.584;2023-11-19T13:28:36;22.77;;;4.47;;
22973;SDS011;11653;50.848;4.584;2023-11-19T13:31:02;13.23;;;3.13;;
22973;SDS011;11653;50.848;4.584;2023-11-19T13:33:28;22.63;;;3.67;;
22973;SDS011;11653;50.848;4.584;2023-11-19T13:35:54;15.07;;;3.93;;
22973;SDS011;11653;50.848;4.584;2023-11-19T13:38:20;21.47;;;3.97;;
22973;SDS011;11653;50.848;4.584;2023-11-19T13:40:47;23.43;;;4.67;;
22973;SDS011;11653;50.848;4.584;2023-11-19T13:43:12;21.57;;;4.23;;
22973;SDS011;11653;50.848;4.584;2023-11-19T13:45:38;19.13;;;3.77;;
22973;SDS011;11653;50.848;4.584;2023-11-19T13:48:04;17.17;;;3.60;;
22973;SDS011;11653;50.848;4.584;2023-11-19T13:50:29;22.73;;;4.63;;
22973;SDS011;11653;50.848;4.584;2023-11-19T13:52:55;21.90;;;4.13;;
22973;SDS011;11653;50.848;4.584;2023-11-19T13:55:21;24.13;;;4.13;;
22973;SDS011;11653;50.848;4.584;2023-11-19T13:57:47;19.83;;;3.87;;
22973;SDS011;11653;50.848;4.584;2023-11-19T14:00:13;22.37;;;4.20;;
22973;SDS011;11653;50.848;4.584;2023-11-19T14:02:45;23.87;;;5.00;;
22973;SDS011;11653;50.848;4.584;2023-11-19T14:05:12;20.97;;;3.80;;
22973;SDS011;11653;50.848;4.584;2023-11-19T14:07:39;21.97;;;3.87;;
22973;SDS011;11653;50.848;4.584;2023-11-19T14:10:05;20.17;;;3.83;;
22973;SDS011;11653;50.848;4.584;2023-11-19T14:12:34;22.97;;;4.30;;
22973;SDS011;11653;50.848;4.584;2023-11-19T14:15:01;28.80;;;4.83;;
22973;SDS011;11653;50.848;4.584;2023-11-19T14:17:26;22.93;;;3.90;;
22973;SDS011;11653;50.848;4.584;2023-11-19T14:23:17;26.33;;;4.73;;
22973;SDS011;11653;50.848;4.584;2023-11-19T14:29:16;15.37;;;3.43;;
22973;SDS011;11653;50.848;4.584;2023-11-19T14:31:42;23.43;;;3.67;;
22973;SDS011;11653;50.848;4.584;2023-11-19T14:34:08;23.20;;;5.20;;
22973;SDS011;11653;50.848;4.584;2023-11-19T14:36:34;23.83;;;3.80;;
22973;SDS011;11653;50.848;4.584;2023-11-19T14:39:00;30.17;;;4.93;;
22973;SDS011;11653;50.848;4.584;2023-11-19T14:41:25;28.73;;;4.10;;
22973;SDS011;11653;50.848;4.584;2023-11-19T14:43:51;29.47;;;4.77;;
22973;SDS011;11653;50.848;4.584;2023-11-19T14:46:17;24.37;;;4.90;;
22973;SDS011;11653;50.848;4.584;2023-11-19T14:48:43;25.60;;;4.67;;
22973;SDS011;11653;50.848;4.584;2023-11-19T14:51:09;29.17;;;4.23;;
22973;SDS011;11653;50.848;4.584;2023-11-19T14:53:37;19.47;;;3.90;;
22973;SDS011;11653;50.848;4.584;2023-11-19T14:56:03;20.33;;;3.73;;
22973;SDS011;11653;50.848;4.584;2023-11-19T14:58:29;23.20;;;4.00;;
22973;SDS011;11653;50.848;4.584;2023-11-19T15:00:55;14.87;;;3.60;;
22973;SDS011;11653;50.848;4.584;2023-11-19T15:03:21;23.87;;;3.63;;
22973;SDS011;11653;50.848;4.584;2023-11-19T15:05:47;23.23;;;4.33;;
22973;SDS011;11653;50.848;4.584;2023-11-19T15:08:13;19.57;;;3.90;;
22973;SDS011;11653;50.848;4.584;2023-11-19T15:10:44;17.17;;;3.80;;
22973;SDS011;11653;50.848;4.584;2023-11-19T15:13:10;20.13;;;5.30;;
22973;SDS011;11653;50.848;4.584;2023-11-19T15:15:36;30.33;;;4.73;;
22973;SDS011;11653;50.848;4.584;2023-11-19T15:18:03;27.33;;;4.67;;
22973;SDS011;11653;50.848;4.584;2023-11-19T15:20:30;19.33;;;3.73;;
22973;SDS011;11653;50.848;4.584;2023-11-19T15:22:56;23.37;;;4.50;;
22973;SDS011;11653;50.848;4.584;2023-11-19T15:25:22;21.83;;;4.03;;
22973;SDS011;11653;50.848;4.584;2023-11-19T15:27:49;20.33;;;4.03;;
22973;SDS011;11653;50.848;4.584;2023-11-19T15:30:15;23.03;;;3.93;;
22973;SDS011;11653;50.848;4.584;2023-11-19T15:32:41;24.07;;;4.70;;